createdAt,value
2022-08-24T00:00:36.205Z,68.52
2022-08-24T00:03:03.305Z,68.87
2022-08-24T00:05:30.066Z,68.73
2022-08-24T00:07:57.085Z,68.56
2022-08-24T00:10:24.509Z,68.54
2022-08-24T00:12:51.021Z,68.33
2022-08-24T00:15:18.330Z,68.74
2022-08-24T00:17:44.926Z,68.96
2022-08-24T00:20:12.798Z,69.21
2022-08-24T00:22:40.086Z,69.42
2022-08-24T00:25:08.454Z,69.33
2022-08-24T00:27:35.027Z,69.46
2022-08-24T00:30:01.642Z,69.56
2022-08-24T00:32:29.966Z,69.73
2022-08-24T00:34:58.824Z,69.86
2022-08-24T00:37:28.475Z,69.76
2022-08-24T00:39:55.031Z,69.30
2022-08-24T00:42:21.635Z,69.31
2022-08-24T00:44:48.299Z,69.13
2022-08-24T00:47:40.586Z,69.31
2022-08-24T00:50:19.920Z,68.72
2022-08-24T00:53:01.558Z,68.83
2022-08-24T00:55:37.030Z,68.68
2022-08-24T00:58:17.182Z,68.78
2022-08-24T01:00:49.946Z,68.47
2022-08-24T01:03:17.440Z,68.55
2022-08-24T01:05:44.429Z,68.73
2022-08-24T01:08:13.320Z,68.55
2022-08-24T01:10:44.470Z,68.93
2022-08-24T01:13:14.195Z,69.03
2022-08-24T01:15:44.451Z,69.25
2022-08-24T01:18:35.035Z,69.36
2022-08-24T01:21:45.262Z,69.44
2022-08-24T01:24:13.808Z,69.75
2022-08-24T01:26:49.079Z,70.48
2022-08-24T01:29:27.590Z,71.04
2022-08-24T01:31:54.544Z,71.35
2022-08-24T01:34:21.348Z,71.40
2022-08-24T01:36:56.077Z,71.51
2022-08-24T01:39:26.973Z,71.10
2022-08-24T01:41:54.217Z,70.76
2022-08-24T01:44:23.342Z,70.58
2022-08-24T01:46:53.651Z,70.68
2022-08-24T01:49:23.065Z,70.91
2022-08-24T01:51:49.522Z,71.30
2022-08-24T01:54:16.664Z,71.80
2022-08-24T01:56:44.001Z,72.48
2022-08-24T01:59:12.461Z,72.76
2022-08-24T02:01:42.723Z,73.22
2022-08-24T02:04:09.851Z,73.19
2022-08-24T02:06:37.690Z,73.66
2022-08-24T02:09:04.860Z,74.12
2022-08-24T02:11:32.741Z,74.16
2022-08-24T02:13:59.461Z,73.99
2022-08-24T02:16:28.665Z,74.31
2022-08-24T02:18:55.296Z,74.44
2022-08-24T02:21:22.151Z,74.62
2022-08-24T02:23:48.671Z,74.53
2022-08-24T02:26:15.180Z,74.37
2022-08-24T02:28:42.300Z,74.62
2022-08-24T02:31:12.684Z,74.57
2022-08-24T02:33:39.767Z,74.73
2022-08-24T02:36:25.646Z,74.94
2022-08-24T02:38:54.610Z,74.74
2022-08-24T02:41:24.630Z,74.85
2022-08-24T02:43:51.580Z,74.31
2022-08-24T02:46:23.160Z,74.35
2022-08-24T02:48:57.416Z,74.31
2022-08-24T02:51:38.843Z,74.14
2022-08-24T02:54:11.488Z,74.06
2022-08-24T02:56:37.918Z,74.02
2022-08-24T02:59:04.527Z,73.93
2022-08-24T03:01:31.636Z,73.92
2022-08-24T03:03:58.835Z,73.91
2022-08-24T03:06:25.350Z,73.87
2022-08-24T03:08:56.362Z,73.94
2022-08-24T03:11:28.061Z,73.83
2022-08-24T03:14:01.867Z,73.85
2022-08-24T03:16:31.787Z,74.16
2022-08-24T03:18:58.379Z,74.09
2022-08-24T03:21:25.391Z,74.11
2022-08-24T03:23:52.425Z,74.29
2022-08-24T03:26:18.923Z,74.51
2022-08-24T03:28:45.388Z,74.71
2022-08-24T03:31:12.541Z,74.90
2022-08-24T03:33:39.093Z,74.85
2022-08-24T03:36:06.130Z,74.98
2022-08-24T03:38:32.881Z,75.09
2022-08-24T03:40:59.759Z,74.92
2022-08-24T03:43:44.730Z,75.12
2022-08-24T03:46:12.274Z,74.97
2022-08-24T03:48:40.708Z,74.73
2022-08-24T03:51:11.608Z,74.87
2022-08-24T03:53:42.946Z,75.15
2022-08-24T03:56:11.769Z,74.69
2022-08-24T03:58:41.613Z,75.00
2022-08-24T04:01:09.006Z,75.12
2022-08-24T04:03:41.546Z,75.25
2022-08-24T04:06:09.385Z,75.12
2022-08-24T04:08:38.879Z,74.81
2022-08-24T04:11:06.168Z,74.71
2022-08-24T04:13:32.747Z,74.81
2022-08-24T04:16:05.019Z,74.83
2022-08-24T04:18:31.706Z,75.09
2022-08-24T04:20:58.277Z,74.81
2022-08-24T04:23:29.025Z,74.53
2022-08-24T04:26:11.751Z,74.14
2022-08-24T04:28:38.354Z,74.48
2022-08-24T04:31:06.135Z,74.85
2022-08-24T04:33:33.094Z,74.78
2022-08-24T04:35:59.807Z,74.94
2022-08-24T04:38:26.888Z,75.02
2022-08-24T04:40:53.595Z,75.28
2022-08-24T04:43:20.412Z,74.73
2022-08-24T04:45:48.575Z,75.03
2022-08-24T04:48:16.070Z,74.70
2022-08-24T04:50:43.736Z,75.08
2022-08-24T04:53:13.416Z,74.87
2022-08-24T04:55:52.024Z,74.81
2022-08-24T04:58:19.197Z,75.21
2022-08-24T05:00:46.451Z,75.29
2022-08-24T05:03:13.192Z,74.99
2022-08-24T05:05:47.078Z,74.86
2022-08-24T05:08:14.701Z,74.77
2022-08-24T05:10:44.393Z,74.80
2022-08-24T05:13:11.428Z,74.90
2022-08-24T05:15:46.511Z,75.08
2022-08-24T05:18:15.175Z,75.35
2022-08-24T05:20:49.573Z,75.15
2022-08-24T05:23:16.088Z,75.21
2022-08-24T05:25:42.953Z,74.83
2022-08-24T05:28:09.529Z,75.06
2022-08-24T05:30:40.612Z,74.09
2022-08-24T05:33:09.034Z,73.57
2022-08-24T05:35:39.837Z,72.97
2022-08-24T05:38:10.371Z,72.74
2022-08-24T05:40:37.369Z,72.72
2022-08-24T05:43:03.940Z,71.89
2022-08-24T05:45:31.489Z,71.38
2022-08-24T05:47:57.970Z,70.80
2022-08-24T05:50:24.480Z,70.23
2022-08-24T05:52:50.976Z,69.80
2022-08-24T05:55:17.773Z,69.46
2022-08-24T05:57:45.466Z,69.87
2022-08-24T06:00:12.799Z,69.03
2022-08-24T06:02:39.539Z,68.22
2022-08-24T06:05:06.261Z,67.87
2022-08-24T06:07:34.282Z,67.97
2022-08-24T06:10:14.790Z,65.68
2022-08-24T06:12:47.422Z,64.31
2022-08-24T06:15:14.573Z,63.29
2022-08-24T06:17:41.126Z,63.09
2022-08-24T06:20:08.326Z,62.27
2022-08-24T06:22:34.757Z,61.77
2022-08-24T06:25:19.812Z,61.77
2022-08-24T06:27:46.344Z,61.64
2022-08-24T06:32:37.254Z,60.00
2022-08-24T06:35:03.991Z,60.84
2022-08-24T06:37:30.514Z,60.48
2022-08-24T06:39:59.522Z,60.20
2022-08-24T06:42:26.351Z,60.07
2022-08-24T06:44:53.001Z,59.66
2022-08-24T06:47:19.676Z,59.00
2022-08-24T06:49:46.107Z,58.44
2022-08-24T06:52:12.967Z,58.56
2022-08-24T06:54:39.639Z,58.58
2022-08-24T06:57:06.583Z,57.25
2022-08-24T06:59:33.376Z,56.79
2022-08-24T07:02:00.395Z,56.36
2022-08-24T07:04:28.401Z,56.20
2022-08-24T07:06:56.874Z,56.40
2022-08-24T07:09:27.322Z,56.42
2022-08-24T07:11:53.906Z,55.88
2022-08-24T07:14:21.617Z,55.78
2022-08-24T07:16:48.789Z,55.71
2022-08-24T07:19:15.419Z,55.76
2022-08-24T07:21:42.450Z,54.77
2022-08-24T07:24:08.953Z,54.06
2022-08-24T07:26:35.467Z,52.74
2022-08-24T07:29:43.674Z,52.94
2022-08-24T07:32:02.020Z,52.60
2022-08-24T07:34:29.085Z,51.98
2022-08-24T07:36:55.545Z,51.38
2022-08-24T07:39:22.429Z,51.76
2022-08-24T07:42:11.531Z,49.39
2022-08-24T07:44:35.810Z,48.67
2022-08-24T07:47:20.695Z,48.38
2022-08-24T07:49:49.229Z,47.51
2022-08-24T07:52:15.742Z,46.63
2022-08-24T07:54:42.228Z,47.05
2022-08-24T07:57:08.747Z,46.00
2022-08-24T07:59:36.657Z,44.10
2022-08-24T08:02:05.112Z,43.91
2022-08-24T08:04:31.750Z,42.12
2022-08-24T08:07:00.700Z,40.34
2022-08-24T08:09:27.682Z,39.92
2022-08-24T08:11:54.162Z,40.87
2022-08-24T08:14:20.810Z,41.09
2022-08-24T08:16:47.318Z,40.96
2022-08-24T08:19:13.794Z,40.74
2022-08-24T08:22:07.959Z,42.08
2022-08-24T08:24:35.351Z,41.36
2022-08-24T08:27:01.865Z,41.22
2022-08-24T08:29:31.331Z,40.02
2022-08-24T08:31:58.360Z,38.49
2022-08-24T08:34:24.807Z,39.18
2022-08-24T08:36:51.509Z,38.45
2022-08-24T08:39:20.021Z,37.56
2022-08-24T08:41:59.033Z,36.93
2022-08-24T08:44:46.613Z,39.35
2022-08-24T08:47:50.759Z,38.07
2022-08-24T08:50:44.867Z,36.03
2022-08-24T08:53:39.154Z,38.80
2022-08-24T08:56:25.763Z,40.57
2022-08-24T08:59:02.624Z,38.92
2022-08-24T09:01:53.457Z,39.11
2022-08-24T09:04:25.630Z,36.90
2022-08-24T09:07:22.434Z,34.93
2022-08-24T09:10:08.760Z,34.46
2022-08-24T09:12:53.564Z,36.29
2022-08-24T09:15:42.013Z,38.64
2022-08-24T09:18:45.825Z,35.95
2022-08-24T09:21:35.130Z,34.55
2022-08-24T09:24:40.147Z,32.38
2022-08-24T09:27:18.500Z,31.68
2022-08-24T09:30:13.244Z,32.18
2022-08-24T09:32:51.974Z,31.00
2022-08-24T09:35:31.206Z,29.99
2022-08-24T09:38:07.339Z,30.45
2022-08-24T09:40:36.687Z,28.82
2022-08-24T09:43:06.313Z,29.21
2022-08-24T09:46:00.800Z,29.86
2022-08-24T09:48:36.641Z,30.78
2022-08-24T09:51:23.454Z,30.16
2022-08-24T09:54:27.256Z,30.01
2022-08-24T09:57:13.330Z,28.12
2022-08-24T10:00:12.822Z,28.76
2022-08-24T10:03:08.486Z,29.34
2022-08-24T10:06:00.618Z,31.29
2022-08-24T10:08:35.055Z,29.37
2022-08-24T10:11:10.598Z,28.21
2022-08-24T10:13:49.401Z,26.54
2022-08-24T10:16:38.861Z,26.71
2022-08-24T10:19:36.228Z,27.02
2022-08-24T10:22:07.024Z,27.46
2022-08-24T10:25:03.368Z,26.99
2022-08-24T10:28:00.696Z,27.47
2022-08-24T10:30:52.205Z,27.59
2022-08-24T10:33:31.268Z,27.11
2022-08-24T10:36:16.372Z,26.01
2022-08-24T10:39:26.031Z,25.68
2022-08-24T10:42:33.385Z,27.85
2022-08-24T10:45:28.687Z,28.53
2022-08-24T10:48:16.941Z,28.41
2022-08-24T10:51:01.532Z,27.64
2022-08-24T10:53:30.322Z,26.82
2022-08-24T10:56:06.026Z,26.74
2022-08-24T10:58:44.404Z,25.99
2022-08-24T11:01:28.606Z,27.12
2022-08-24T11:04:05.842Z,28.50
2022-08-24T11:06:39.740Z,26.42
2022-08-24T11:09:10.648Z,26.62
2022-08-24T11:11:42.611Z,27.48
2022-08-24T11:14:27.462Z,25.67
2022-08-24T11:16:58.012Z,25.72
2022-08-24T11:19:27.342Z,26.84
2022-08-24T11:21:57.302Z,26.84
2022-08-24T11:24:24.307Z,24.53
2022-08-24T11:27:05.433Z,22.98
2022-08-24T11:29:50.458Z,25.38
2022-08-24T11:32:47.784Z,26.83
2022-08-24T11:35:32.412Z,27.90
2022-08-24T11:38:18.530Z,26.46
2022-08-24T11:40:52.180Z,25.63
2022-08-24T11:43:30.657Z,23.91
2022-08-24T11:46:16.933Z,24.18
2022-08-24T11:48:52.426Z,24.53
2022-08-24T11:51:27.935Z,24.92
2022-08-24T11:54:05.218Z,22.89
2022-08-24T11:56:39.585Z,26.20
2022-08-24T11:59:17.755Z,25.78
2022-08-24T12:01:53.793Z,29.55
2022-08-24T12:04:36.715Z,26.79
2022-08-24T12:07:15.245Z,25.10
2022-08-24T12:09:44.459Z,24.04
2022-08-24T12:12:46.071Z,24.27
2022-08-24T12:15:21.998Z,25.87
2022-08-24T12:18:02.757Z,25.68
2022-08-24T12:20:41.348Z,26.61
2022-08-24T12:23:37.286Z,26.24
2022-08-24T12:26:12.450Z,26.79
2022-08-24T12:28:53.635Z,26.07
2022-08-24T12:31:39.933Z,24.92
2022-08-24T12:34:14.621Z,25.38
2022-08-24T12:37:15.994Z,25.03
2022-08-24T12:40:08.580Z,23.56
2022-08-24T12:42:52.322Z,22.70
2022-08-24T12:45:20.589Z,22.48
2022-08-24T12:48:01.401Z,22.31
2022-08-24T12:50:42.769Z,21.57
2022-08-24T12:53:24.117Z,21.89
2022-08-24T12:56:13.828Z,21.34
2022-08-24T12:59:00.057Z,22.10
2022-08-24T13:01:33.745Z,22.17
2022-08-24T13:04:37.892Z,23.21
2022-08-24T13:07:19.560Z,22.74
2022-08-24T13:09:47.387Z,22.74
2022-08-24T13:12:32.843Z,23.14
2022-08-24T13:15:25.329Z,23.40
2022-08-24T13:18:08.970Z,22.39
2022-08-24T13:20:38.603Z,23.21
2022-08-24T13:23:11.087Z,21.77
2022-08-24T13:25:58.920Z,22.53
2022-08-24T13:28:28.326Z,23.46
2022-08-24T13:31:04.512Z,24.48
2022-08-24T13:34:11.521Z,26.06
2022-08-24T13:36:47.904Z,25.70
2022-08-24T13:39:23.491Z,23.78
2022-08-24T13:42:01.342Z,22.21
2022-08-24T13:44:58.586Z,21.40
2022-08-24T13:47:49.461Z,21.62
2022-08-24T13:50:41.659Z,22.14
2022-08-24T13:53:29.264Z,21.92
2022-08-24T13:56:18.517Z,21.57
2022-08-24T13:59:16.269Z,22.34
2022-08-24T14:01:57.763Z,23.72
2022-08-24T14:04:24.305Z,24.73
2022-08-24T14:07:12.510Z,25.05
2022-08-24T14:09:56.523Z,26.06
2022-08-24T14:12:32.196Z,26.32
2022-08-24T14:15:14.668Z,25.74
2022-08-24T14:17:55.081Z,25.76
2022-08-24T14:20:48.348Z,23.84
2022-08-24T14:23:24.054Z,22.98
2022-08-24T14:25:51.678Z,23.75
2022-08-24T14:28:36.108Z,25.44
2022-08-24T14:31:29.588Z,24.71
2022-08-24T14:34:26.763Z,22.60
2022-08-24T14:37:11.550Z,21.09
2022-08-24T14:40:02.543Z,20.71
2022-08-24T14:42:46.449Z,20.67
2022-08-24T14:45:15.874Z,20.77
2022-08-24T14:48:01.127Z,20.68
2022-08-24T14:50:49.582Z,20.64
2022-08-24T14:53:47.753Z,21.56
2022-08-24T14:56:27.643Z,22.19
2022-08-24T14:59:30.661Z,22.39
2022-08-24T15:02:26.105Z,22.24
2022-08-24T15:04:58.324Z,20.78
2022-08-24T15:07:29.160Z,20.48
2022-08-24T15:09:57.070Z,20.82
2022-08-24T15:12:38.295Z,20.99
2022-08-24T15:15:13.156Z,21.98
2022-08-24T15:18:09.651Z,21.36
2022-08-24T15:20:36.434Z,22.96
2022-08-24T15:23:17.219Z,22.27
2022-08-24T15:25:55.132Z,22.67
2022-08-24T15:28:32.546Z,20.97
2022-08-24T15:31:01.812Z,20.30
2022-08-24T15:33:31.194Z,20.53
2022-08-24T15:36:10.381Z,21.73
2022-08-24T15:38:39.678Z,22.50
2022-08-24T15:41:18.022Z,23.36
2022-08-24T15:44:21.405Z,22.76
2022-08-24T15:46:54.177Z,22.10
2022-08-24T15:49:23.816Z,21.84
2022-08-24T15:51:58.221Z,22.18
2022-08-24T15:54:30.678Z,22.31
2022-08-24T15:57:02.659Z,21.49
2022-08-24T15:59:41.347Z,22.01
2022-08-24T16:02:26.532Z,22.47
2022-08-24T16:05:25.189Z,22.34
2022-08-24T16:08:04.275Z,22.87
2022-08-24T16:10:39.073Z,23.95
2022-08-24T16:13:17.439Z,24.39
2022-08-24T16:15:48.762Z,24.72
2022-08-24T16:18:17.086Z,24.29
2022-08-24T16:20:46.210Z,23.96
2022-08-24T16:23:26.741Z,22.79
2022-08-24T16:26:26.481Z,22.84
2022-08-24T16:28:55.093Z,23.06
2022-08-24T16:31:49.879Z,23.27
2022-08-24T16:34:28.829Z,24.10
2022-08-24T16:36:56.144Z,24.52
2022-08-24T16:39:23.073Z,25.12
2022-08-24T16:41:54.357Z,25.09
2022-08-24T16:44:21.196Z,25.19
2022-08-24T16:46:52.867Z,24.47
2022-08-24T16:49:19.369Z,23.99
2022-08-24T16:51:45.979Z,23.06
2022-08-24T16:54:13.838Z,22.90
2022-08-24T16:56:42.523Z,24.11
2022-08-24T16:59:16.993Z,24.19
2022-08-24T17:01:43.459Z,23.77
2022-08-24T17:04:10.071Z,23.92
2022-08-24T17:06:36.677Z,23.37
2022-08-24T17:09:03.751Z,23.20
2022-08-24T17:11:30.900Z,23.33
2022-08-24T17:13:57.412Z,24.20
2022-08-24T17:16:24.022Z,24.31
2022-08-24T17:18:50.583Z,24.07
2022-08-24T17:21:17.736Z,24.92
2022-08-24T17:23:44.581Z,24.72
2022-08-24T17:26:20.099Z,24.12
2022-08-24T17:28:50.376Z,24.89
2022-08-24T17:31:17.213Z,25.95
2022-08-24T17:33:43.928Z,25.86
2022-08-24T17:36:15.257Z,27.03
2022-08-24T17:38:46.071Z,27.28
2022-08-24T17:41:14.765Z,27.11
2022-08-24T17:43:45.881Z,28.30
2022-08-24T17:46:14.460Z,28.42
2022-08-24T17:48:44.126Z,28.50
2022-08-24T17:51:11.154Z,28.02
2022-08-24T17:53:37.705Z,28.38
2022-08-24T17:57:36.362Z,28.20
2022-08-24T18:00:04.477Z,28.44
2022-08-24T18:02:31.117Z,28.84
2022-08-24T18:04:57.627Z,29.32
2022-08-24T18:07:42.306Z,29.65
2022-08-24T18:10:11.308Z,30.41
2022-08-24T18:12:38.831Z,30.80
2022-08-24T18:15:06.750Z,31.52
2022-08-24T18:17:37.118Z,31.75
2022-08-24T18:20:05.437Z,32.30
2022-08-24T18:22:31.924Z,32.68
2022-08-24T18:24:58.468Z,32.98
2022-08-24T18:27:32.389Z,33.28
2022-08-24T18:30:02.980Z,33.78
2022-08-24T18:32:31.022Z,34.17
2022-08-24T18:34:58.439Z,34.41
2022-08-24T18:37:24.943Z,34.71
2022-08-24T18:39:51.519Z,34.85
2022-08-24T18:42:18.476Z,35.25
2022-08-24T18:44:44.959Z,35.11
2022-08-24T18:47:11.594Z,35.72
2022-08-24T18:49:38.569Z,35.79
2022-08-24T18:52:08.886Z,36.22
2022-08-24T18:54:39.338Z,36.32
2022-08-24T18:57:07.052Z,36.79
2022-08-24T18:59:35.428Z,36.84
2022-08-24T19:02:32.870Z,37.13
2022-08-24T19:05:01.845Z,37.52
2022-08-24T19:07:31.373Z,37.72
2022-08-24T19:09:58.754Z,37.86
2022-08-24T19:12:27.478Z,37.95
2022-08-24T19:14:57.354Z,38.35
2022-08-24T19:17:24.152Z,38.66
2022-08-24T19:19:50.689Z,38.73
2022-08-24T19:22:17.918Z,38.99
2022-08-24T19:24:44.662Z,39.49
2022-08-24T19:27:11.779Z,39.95
2022-08-24T19:29:55.070Z,39.96
2022-08-24T19:32:28.144Z,40.21
2022-08-24T19:34:56.875Z,40.42
2022-08-24T19:37:23.670Z,40.70
2022-08-24T19:39:51.098Z,40.69
2022-08-24T19:42:18.272Z,40.90
2022-08-24T19:45:03.099Z,40.83
2022-08-24T19:47:34.223Z,41.31
2022-08-24T19:50:02.102Z,41.42
2022-08-24T19:52:32.481Z,41.38
2022-08-24T19:54:59.175Z,41.55
2022-08-24T19:57:53.137Z,42.18
2022-08-24T20:00:19.681Z,42.20
2022-08-24T20:02:51.527Z,42.43
2022-08-24T20:05:19.505Z,42.73
2022-08-24T20:07:46.993Z,42.90
2022-08-24T20:10:15.573Z,42.82
2022-08-24T20:12:42.464Z,42.86
2022-08-24T20:15:09.370Z,43.42
2022-08-24T20:17:36.824Z,43.78
2022-08-24T20:20:05.721Z,44.17
2022-08-24T20:22:32.190Z,44.25
2022-08-24T20:24:58.798Z,44.40
2022-08-24T20:27:27.779Z,44.93
2022-08-24T20:29:55.234Z,45.17
2022-08-24T20:32:21.978Z,45.16
2022-08-24T20:34:48.625Z,45.43
2022-08-24T20:37:28.042Z,45.79
2022-08-24T20:39:56.230Z,45.77
2022-08-24T20:42:24.978Z,46.29
2022-08-24T20:44:51.676Z,46.40
2022-08-24T20:47:18.763Z,46.38
2022-08-24T20:49:45.781Z,46.74
2022-08-24T20:52:12.311Z,47.08
2022-08-24T20:54:40.015Z,47.14
2022-08-24T20:57:10.598Z,46.89
2022-08-24T20:59:37.154Z,46.85
2022-08-24T21:02:04.701Z,47.16
2022-08-24T21:04:31.257Z,47.03
2022-08-24T21:06:57.890Z,46.59
2022-08-24T21:09:24.724Z,47.02
2022-08-24T21:11:51.646Z,46.72
2022-08-24T21:14:18.489Z,45.91
2022-08-24T21:16:45.062Z,45.92
2022-08-24T21:19:16.137Z,45.53
2022-08-24T21:21:42.760Z,45.46
2022-08-24T21:24:09.758Z,45.14
2022-08-24T21:26:36.902Z,45.38
2022-08-24T21:29:06.606Z,45.03
2022-08-24T21:31:33.276Z,45.07
2022-08-24T21:34:18.859Z,45.08
2022-08-24T21:36:48.075Z,45.01
2022-08-24T21:39:14.652Z,44.94
2022-08-24T21:41:41.263Z,44.57
2022-08-24T21:44:07.816Z,44.57
2022-08-24T21:46:36.854Z,44.57
2022-08-24T21:49:04.130Z,44.40
2022-08-24T21:51:30.962Z,43.94
2022-08-24T21:53:59.710Z,44.11
2022-08-24T21:56:31.690Z,44.04
2022-08-24T21:58:58.703Z,43.74
2022-08-24T22:01:25.220Z,43.68
2022-08-24T22:03:51.806Z,43.78
2022-08-24T22:06:18.290Z,43.37
2022-08-24T22:08:44.773Z,43.41
2022-08-24T22:11:13.993Z,43.02
2022-08-24T22:13:40.862Z,43.29
2022-08-24T22:16:07.536Z,43.10
2022-08-24T22:18:35.373Z,43.11
2022-08-24T22:21:07.446Z,42.86
2022-08-24T22:23:34.400Z,42.70
2022-08-24T22:26:01.017Z,42.95
2022-08-24T22:28:27.757Z,42.85
2022-08-24T22:30:54.488Z,42.91
2022-08-24T22:33:21.115Z,42.79
2022-08-24T22:35:50.218Z,42.82
2022-08-24T22:38:16.685Z,42.82
2022-08-24T22:40:44.184Z,43.04
2022-08-24T22:43:12.193Z,43.02
2022-08-24T22:45:38.796Z,43.09
2022-08-24T22:48:05.364Z,43.32
2022-08-24T22:50:32.659Z,43.46
2022-08-24T22:53:07.049Z,43.29
2022-08-24T22:55:33.809Z,43.57
2022-08-24T22:58:00.324Z,43.31
2022-08-24T23:00:26.818Z,43.68
2022-08-24T23:02:53.350Z,43.68
2022-08-24T23:05:19.894Z,44.67
2022-08-24T23:07:46.322Z,44.41
2022-08-24T23:10:14.476Z,44.68
2022-08-24T23:12:41.118Z,44.52
2022-08-24T23:15:08.112Z,45.83
2022-08-24T23:17:34.558Z,45.17
2022-08-24T23:20:01.419Z,44.78
2022-08-24T23:22:31.222Z,44.93
2022-08-24T23:24:59.105Z,45.24
2022-08-24T23:27:27.591Z,45.58
2022-08-24T23:29:59.785Z,45.51
2022-08-24T23:32:27.300Z,45.61
2022-08-24T23:34:57.713Z,45.92
2022-08-24T23:37:24.955Z,46.09
2022-08-24T23:39:51.584Z,46.36
2022-08-24T23:42:18.175Z,46.50
2022-08-24T23:44:44.705Z,46.25
2022-08-24T23:47:11.164Z,46.07
2022-08-24T23:49:39.717Z,46.71
2022-08-24T23:52:06.320Z,46.59
2022-08-24T23:54:32.894Z,46.46
2022-08-24T23:56:59.434Z,46.54
